createdAt,value
2023-02-08T00:03:04.266Z,103755.75
2023-02-08T00:08:06.358Z,103751.22
2023-02-08T00:13:09.559Z,103757.00
2023-02-08T00:18:12.164Z,103749.63
2023-02-08T00:23:14.714Z,103756.00
2023-02-08T00:28:19.873Z,103749.50
2023-02-08T00:33:21.928Z,103763.13
2023-02-08T00:38:23.697Z,103767.63
2023-02-08T00:43:27.036Z,103766.13
2023-02-08T00:48:29.324Z,103771.72
2023-02-08T00:53:31.816Z,103760.72
2023-02-08T00:58:36.251Z,103764.66
2023-02-08T01:03:40.342Z,103770.72
2023-02-08T01:08:42.590Z,103773.03
2023-02-08T01:13:46.087Z,103772.31
2023-02-08T01:18:50.704Z,103766.84
2023-02-08T01:23:52.936Z,103760.41
2023-02-08T01:28:57.353Z,103758.31
2023-02-08T01:33:59.998Z,103764.69
2023-02-08T01:39:02.508Z,103753.06
2023-02-08T01:44:09.465Z,103755.16
2023-02-08T01:49:16.349Z,103757.00
2023-02-08T01:54:22.659Z,103756.63
2023-02-08T01:59:30.316Z,103765.13
2023-02-08T02:04:32.456Z,103765.00
2023-02-08T02:09:41.363Z,103762.88
2023-02-08T02:14:45.980Z,103761.13
2023-02-08T02:19:54.874Z,103753.31
2023-02-08T02:25:14.644Z,103753.53
2023-02-08T02:31:02.951Z,103766.38
2023-02-08T02:36:17.942Z,103765.28
2023-02-08T02:41:33.768Z,103763.00
2023-02-08T02:46:40.252Z,103763.13
2023-02-08T02:51:49.303Z,103766.13
2023-02-08T02:56:55.864Z,103775.31
2023-02-08T03:01:58.177Z,103774.56
2023-02-08T03:07:12.940Z,103769.56
2023-02-08T03:12:36.064Z,103768.34
2023-02-08T03:17:54.198Z,103763.81
2023-02-08T03:23:07.808Z,103762.72
2023-02-08T03:28:20.701Z,103764.00
2023-02-08T03:33:29.069Z,103761.88
2023-02-08T03:38:36.408Z,103767.25
2023-02-08T03:43:43.200Z,103754.34
2023-02-08T03:48:48.295Z,103757.34
2023-02-08T03:53:54.064Z,103752.94
2023-02-08T03:59:00.202Z,103754.31
2023-02-08T04:04:02.422Z,103754.78
2023-02-08T04:09:05.637Z,103768.16
2023-02-08T04:14:07.399Z,103762.31
2023-02-08T04:19:09.587Z,103759.63
2023-02-08T04:24:13.033Z,103755.56
2023-02-08T04:29:15.057Z,103759.06
2023-02-08T04:34:17.254Z,103764.78
2023-02-08T04:39:20.620Z,103757.19
2023-02-08T04:44:22.771Z,103750.03
2023-02-08T04:49:25.139Z,103757.97
2023-02-08T04:54:28.644Z,103759.25
2023-02-08T04:59:33.726Z,103753.03
2023-02-08T05:04:35.937Z,103757.38
2023-02-08T05:09:39.638Z,103762.19
2023-02-08T05:14:41.439Z,103763.28
2023-02-08T05:19:43.235Z,103768.03
2023-02-08T05:24:46.333Z,103762.22
2023-02-08T05:29:48.200Z,103765.75
2023-02-08T05:34:50.127Z,103762.94
2023-02-08T05:39:58.098Z,103766.81
2023-02-08T05:45:03.114Z,103773.53
2023-02-08T05:50:05.801Z,103780.50
2023-02-08T05:55:09.029Z,103776.09
2023-02-08T06:00:12.427Z,103780.56
2023-02-08T06:05:14.545Z,103776.50
2023-02-08T06:10:18.212Z,103791.38
2023-02-08T06:15:20.654Z,103772.81
2023-02-08T06:20:22.928Z,103789.34
2023-02-08T06:25:26.376Z,103799.13
2023-02-08T06:30:28.100Z,103801.53
2023-02-08T06:35:30.081Z,103803.38
2023-02-08T06:40:33.458Z,103801.16
2023-02-08T06:45:35.742Z,103808.53
2023-02-08T06:50:38.065Z,103809.56
2023-02-08T06:55:41.679Z,103812.09
2023-02-08T07:00:44.345Z,103817.97
2023-02-08T07:05:59.008Z,103812.63
2023-02-08T07:11:09.188Z,103817.88
2023-02-08T07:16:11.348Z,103820.81
2023-02-08T07:21:13.662Z,103810.97
2023-02-08T07:26:17.225Z,103807.72
2023-02-08T07:31:18.935Z,103803.38
2023-02-08T07:36:21.521Z,103803.72
2023-02-08T07:41:25.128Z,103801.16
2023-02-08T07:46:27.292Z,103814.00
2023-02-08T07:51:29.562Z,103802.53
2023-02-08T07:56:33.231Z,103797.41
2023-02-08T08:01:35.849Z,103798.13
2023-02-08T08:06:38.140Z,103810.44
2023-02-08T08:11:41.518Z,103811.66
2023-02-08T08:16:43.737Z,103817.97
2023-02-08T08:21:45.427Z,103833.13
2023-02-08T08:26:48.815Z,103828.88
2023-02-08T08:31:50.927Z,103825.97
2023-02-08T08:36:52.985Z,103832.97
2023-02-08T08:41:58.223Z,103830.19
2023-02-08T08:47:01.130Z,103817.91
2023-02-08T08:52:03.466Z,103804.97
2023-02-08T08:57:07.490Z,103810.34
2023-02-08T09:02:12.278Z,103797.69
2023-02-08T09:07:14.559Z,103798.63
2023-02-08T09:12:18.517Z,103792.81
2023-02-08T09:17:20.793Z,103797.28
2023-02-08T09:22:22.752Z,103799.44
2023-02-08T09:27:26.218Z,103803.81
2023-02-08T09:32:35.476Z,103790.25
2023-02-08T09:37:38.055Z,103804.66
2023-02-08T09:42:43.748Z,103813.69
2023-02-08T09:47:54.720Z,103818.94
2023-02-08T09:53:04.649Z,103805.53
2023-02-08T09:58:19.560Z,103798.34
2023-02-08T10:03:34.487Z,103785.66
2023-02-08T10:08:37.561Z,103782.63
2023-02-08T10:14:02.292Z,103772.34
2023-02-08T10:19:12.040Z,103767.63
2023-02-08T10:24:49.880Z,103770.16
2023-02-08T10:30:13.249Z,103758.25
2023-02-08T10:35:23.532Z,103755.34
2023-02-08T10:40:37.596Z,103744.59
2023-02-08T10:45:51.508Z,103724.97
2023-02-08T10:50:53.521Z,103733.28
2023-02-08T10:55:56.219Z,103728.56
2023-02-08T11:01:01.435Z,103722.81
2023-02-08T11:06:06.267Z,103725.53
2023-02-08T11:11:10.542Z,103723.00
2023-02-08T11:16:22.457Z,103721.66
2023-02-08T11:21:27.091Z,103716.88
2023-02-08T11:26:33.925Z,103710.84
2023-02-08T11:31:37.725Z,103691.97
2023-02-08T11:36:45.522Z,103701.84
2023-02-08T11:41:51.375Z,103697.31
2023-02-08T11:46:57.646Z,103697.47
2023-02-08T11:51:59.867Z,103686.31
2023-02-08T11:57:04.000Z,103691.78
2023-02-08T12:02:28.365Z,103683.03
2023-02-08T12:07:42.703Z,103690.00
2023-02-08T12:13:04.983Z,103682.25
2023-02-08T12:18:32.718Z,103685.53
2023-02-08T12:23:50.547Z,103680.28
2023-02-08T12:29:19.060Z,103676.19
2023-02-08T12:34:33.191Z,103679.00
2023-02-08T12:39:42.193Z,103679.75
2023-02-08T12:45:00.612Z,103680.53
2023-02-08T12:50:13.261Z,103678.47
2023-02-08T12:55:21.968Z,103667.84
2023-02-08T13:00:51.707Z,103672.47
2023-02-08T13:06:06.124Z,103662.50
2023-02-08T13:17:11.932Z,103658.97
2023-02-08T13:22:17.236Z,103648.84
2023-02-08T13:27:20.649Z,103657.38
2023-02-08T13:32:27.305Z,103639.44
2023-02-08T13:37:33.445Z,103625.31
2023-02-08T13:42:40.259Z,103609.28
2023-02-08T13:47:46.471Z,103603.72
2023-02-08T13:52:54.491Z,103616.47
2023-02-08T13:58:01.370Z,103613.91
2023-02-08T14:03:20.898Z,103615.06
2023-02-08T14:08:33.109Z,103611.72
2023-02-08T14:13:40.319Z,103599.75
2023-02-08T14:19:06.478Z,103603.25
2023-02-08T14:24:22.948Z,103590.03
2023-02-08T14:29:27.636Z,103588.94
2023-02-08T14:34:34.922Z,103586.53
2023-02-08T14:39:39.087Z,103581.16
2023-02-08T14:44:57.479Z,103587.75
2023-02-08T14:50:08.369Z,103571.50
2023-02-08T14:55:20.033Z,103577.84
2023-02-08T15:00:26.190Z,103563.53
2023-02-08T15:05:31.352Z,103563.91
2023-02-08T15:10:35.072Z,103567.75
2023-02-08T15:15:40.808Z,103565.66
2023-02-08T15:20:45.928Z,103545.72
2023-02-08T15:25:57.653Z,103536.66
2023-02-08T15:31:02.833Z,103534.13
2023-02-08T15:36:08.008Z,103540.78
2023-02-08T15:41:30.444Z,103545.34
2023-02-08T15:46:57.716Z,103533.31
2023-02-08T15:52:15.160Z,103524.13
2023-02-08T15:57:36.574Z,103521.97
2023-02-08T16:02:41.162Z,103516.72
2023-02-08T16:07:48.394Z,103526.81
2023-02-08T16:12:55.772Z,103518.94
2023-02-08T16:18:00.920Z,103523.91
2023-02-08T16:23:21.572Z,103516.97
2023-02-08T16:28:51.152Z,103517.72
2023-02-08T16:34:06.077Z,103521.34
2023-02-08T16:39:40.510Z,103522.97
2023-02-08T16:45:27.355Z,103523.22
2023-02-08T16:50:44.458Z,103510.69
2023-02-08T16:55:50.492Z,103519.63
2023-02-08T17:01:06.495Z,103516.44
2023-02-08T17:06:29.454Z,103517.41
2023-02-08T17:11:36.483Z,103510.34
2023-02-08T17:16:39.108Z,103509.63
2023-02-08T17:21:42.567Z,103495.94
2023-02-08T17:26:44.556Z,103510.13
2023-02-08T17:31:47.723Z,103496.13
2023-02-08T17:36:51.505Z,103489.88
2023-02-08T17:41:53.827Z,103484.69
2023-02-08T17:46:55.806Z,103477.78
2023-02-08T17:51:59.542Z,103483.78
2023-02-08T17:57:04.677Z,103473.03
2023-02-08T18:02:07.686Z,103463.41
2023-02-08T18:07:11.346Z,103467.44
2023-02-08T18:12:13.613Z,103464.47
2023-02-08T18:17:15.732Z,103445.34
2023-02-08T18:22:18.995Z,103455.50
2023-02-08T18:27:20.801Z,103451.19
2023-02-08T18:32:22.724Z,103448.69
2023-02-08T18:37:26.118Z,103447.03
2023-02-08T18:42:28.106Z,103440.25
2023-02-08T18:47:29.918Z,103423.66
2023-02-08T18:52:51.998Z,103420.50
2023-02-08T18:57:58.105Z,103422.47
2023-02-08T19:03:00.159Z,103404.25
2023-02-08T19:08:03.848Z,103406.09
2023-02-08T19:13:06.225Z,103410.78
2023-02-08T19:18:08.411Z,103389.22
2023-02-08T19:23:12.067Z,103387.00
2023-02-08T19:28:22.485Z,103376.72
2023-02-08T19:33:27.058Z,103374.25
2023-02-08T19:38:31.127Z,103364.72
2023-02-08T19:43:34.015Z,103354.94
2023-02-08T19:48:36.741Z,103366.25
2023-02-08T19:53:40.530Z,103354.44
2023-02-08T19:59:01.341Z,103350.41
2023-02-08T20:04:04.276Z,103342.88
2023-02-08T20:09:08.714Z,103327.41
2023-02-08T20:14:12.601Z,103323.38
2023-02-08T20:19:14.744Z,103339.47
2023-02-08T20:30:03.047Z,103318.50
2023-02-08T20:35:05.870Z,103335.53
2023-02-08T20:40:11.165Z,103327.22
2023-02-08T20:45:15.314Z,103327.72
2023-02-08T20:50:19.601Z,103321.75
2023-02-08T20:55:23.766Z,103319.56
2023-02-08T21:00:40.196Z,103306.16
2023-02-08T21:05:44.730Z,103298.09
2023-02-08T21:10:48.307Z,103291.63
2023-02-08T21:15:50.469Z,103293.44
2023-02-08T21:20:52.653Z,103293.81
2023-02-08T21:25:55.842Z,103290.84
2023-02-08T21:31:00.359Z,103286.69
2023-02-08T21:36:03.019Z,103277.34
2023-02-08T21:41:07.839Z,103281.50
2023-02-08T21:46:10.495Z,103274.09
2023-02-08T21:51:12.290Z,103286.22
2023-02-08T21:56:15.479Z,103267.25
2023-02-08T22:01:17.337Z,103259.72
2023-02-08T22:06:19.065Z,103245.81
2023-02-08T22:11:22.460Z,103235.28
2023-02-08T22:16:24.693Z,103223.88
2023-02-08T22:21:26.496Z,103236.47
2023-02-08T22:26:29.848Z,103224.38
2023-02-08T22:31:31.800Z,103225.91
2023-02-08T22:36:33.518Z,103227.94
2023-02-08T22:41:37.098Z,103218.88
2023-02-08T22:46:39.425Z,103221.34
2023-02-08T22:51:41.434Z,103207.72
2023-02-08T22:56:45.236Z,103208.00
2023-02-08T23:01:47.424Z,103198.22
2023-02-08T23:06:52.788Z,103194.22
2023-02-08T23:12:00.034Z,103199.34
2023-02-08T23:17:09.644Z,103184.81
2023-02-08T23:22:11.870Z,103192.69
2023-02-08T23:27:15.730Z,103184.75
2023-02-08T23:32:17.972Z,103185.13
2023-02-08T23:37:20.108Z,103183.91
2023-02-08T23:42:23.522Z,103169.94
2023-02-08T23:47:27.232Z,103169.16
2023-02-08T23:52:29.760Z,103160.97
2023-02-08T23:57:33.900Z,103163.09
